Time;durP1;ratioP1;P1;durP2;ratioP2;P2;SDS_P1;SDS_P2;PMS_P1;PMS_P2;Temp;Humidity;BMP_temperature;BMP_pressure;BME280_temperature;BME280_humidity;BME280_pressure;Samples;Min_cycle;Max_cycle;Signal;HPM_P1;HPM_P2
2021/10/31 00:01:53;;;;;;;34.33;17.98;;;;;;;7.68;99.62;100740.63;5113853;28;20040;-79
2021/10/31 00:04:21;;;;;;;31.08;18.85;;;;;;;7.68;99.93;100745.91;5113329;28;20043;-79
2021/10/31 00:06:50;;;;;;;34.40;18.63;;;;;;;7.53;100.00;100751.84;5113519;28;20048;-78
2021/10/31 00:09:19;;;;;;;34.30;19.38;;;;;;;7.44;100.00;100753.09;5113366;28;20051;-77
2021/10/31 00:11:49;;;;;;;30.42;18.75;;;;;;;7.44;100.00;100753.94;5113653;28;20044;-79
2021/10/31 00:14:17;;;;;;;35.85;19.00;;;;;;;7.45;100.00;100750.38;5113194;28;20046;-79
2021/10/31 00:16:48;;;;;;;31.23;18.90;;;;;;;7.28;100.00;100752.81;5113770;28;20114;-79
2021/10/31 00:19:16;;;;;;;31.40;18.02;;;;;;;7.28;100.00;100751.94;5113136;28;20130;-79
2021/10/31 00:21:47;;;;;;;34.30;19.08;;;;;;;7.18;100.00;100756.75;5113642;28;20040;-79
2021/10/31 00:24:15;;;;;;;32.55;18.15;;;;;;;7.12;100.00;100767.56;5112869;28;20476;-79
2021/10/31 00:26:43;;;;;;;34.22;18.50;;;;;;;7.11;100.00;100763.19;5113405;28;20042;-79
2021/10/31 00:29:12;;;;;;;32.03;19.40;;;;;;;7.08;100.00;100758.00;5113231;28;20365;-78
2021/10/31 00:31:41;;;;;;;32.80;18.25;;;;;;;7.03;100.00;100758.16;5113428;28;20047;-78
2021/10/31 00:34:09;;;;;;;31.98;18.77;;;;;;;6.87;100.00;100752.59;5113137;28;20056;-79
2021/10/31 00:36:38;;;;;;;31.83;18.23;;;;;;;6.80;100.00;100756.38;5113188;28;20044;-78
2021/10/31 00:39:08;;;;;;;33.95;19.20;;;;;;;6.73;100.00;100757.53;5113229;28;20040;-81
2021/10/31 00:41:36;;;;;;;32.95;18.55;;;;;;;6.69;100.00;100752.41;5113411;28;20044;-81
2021/10/31 00:44:05;;;;;;;37.13;19.40;;;;;;;6.63;100.00;100748.16;5111553;28;20055;-76
2021/10/31 00:46:37;;;;;;;34.05;19.42;;;;;;;6.55;100.00;100744.91;5113581;28;20043;-77
2021/10/31 00:49:05;;;;;;;36.90;20.08;;;;;;;6.54;100.00;100753.78;5113014;28;20090;-77
2021/10/31 00:51:34;;;;;;;34.28;19.23;;;;;;;6.57;100.00;100743.97;5113708;28;20044;-77
2021/10/31 00:54:02;;;;;;;33.90;19.42;;;;;;;6.55;100.00;100735.19;5117281;28;20476;-77
2021/10/31 00:56:31;;;;;;;33.67;19.25;;;;;;;6.54;100.00;100738.75;5117013;28;20040;-78
2021/10/31 00:58:59;;;;;;;32.97;19.10;;;;;;;6.49;100.00;100730.13;5117308;28;20128;-73
2021/10/31 01:01:28;;;;;;;33.92;19.58;;;;;;;6.46;100.00;100726.69;5116872;28;20069;-78
2021/10/31 01:03:58;;;;;;;32.30;19.35;;;;;;;6.54;100.00;100728.16;5117017;28;20055;-77
2021/10/31 01:07:16;;;;;;;33.00;18.83;;;;;;;6.45;100.00;100723.19;5116730;28;20043;-77
2021/10/31 01:09:57;;;;;;;30.73;18.45;;;;;;;6.49;100.00;100718.66;5117032;28;20088;-75
2021/10/31 01:12:38;;;;;;;33.22;19.77;;;;;;;6.67;100.00;100718.00;5116692;28;20131;-75
2021/10/31 01:15:17;;;;;;;30.83;18.55;;;;;;;6.79;100.00;100717.53;5117225;28;20044;-75
2021/10/31 01:18:01;;;;;;;30.27;18.92;;;;;;;6.90;100.00;100709.19;5116994;28;20043;-75
2021/10/31 01:20:42;;;;;;;32.05;18.05;;;;;;;6.97;100.00;100705.38;5116568;28;20047;-75
2021/10/31 01:23:23;;;;;;;31.48;17.15;;;;;;;7.15;100.00;100706.47;5116525;28;20473;-75
2021/10/31 01:26:05;;;;;;;31.73;16.75;;;;;;;7.17;100.00;100708.13;5116679;28;20051;-75
2021/10/31 01:28:58;;;;;;;27.73;16.58;;;;;;;7.11;100.00;100703.03;5116134;28;20043;-74
2021/10/31 01:31:37;;;;;;;31.02;16.52;;;;;;;7.19;100.00;100708.06;5116516;28;20528;-75
2021/10/31 01:34:18;;;;;;;28.33;16.92;;;;;;;7.18;100.00;100695.72;5116719;28;20541;-75
2021/10/31 01:36:59;;;;;;;28.40;17.02;;;;;;;7.13;100.00;100693.22;5116360;28;20071;-75
2021/10/31 01:39:37;;;;;;;28.90;17.10;;;;;;;7.08;100.00;100692.56;5115914;28;20046;-73
2021/10/31 01:42:16;;;;;;;29.38;17.73;;;;;;;7.02;100.00;100691.94;5116301;28;20039;-73
2021/10/31 01:44:52;;;;;;;30.77;17.92;;;;;;;6.96;100.00;100674.47;5116230;28;20134;-74
2021/10/31 01:47:35;;;;;;;31.95;18.58;;;;;;;6.94;100.00;100678.09;5114757;28;20473;-77
2021/10/31 01:50:09;;;;;;;;;;;;;;;7.00;100.00;100683.16;5116487;28;20066;-77
2021/10/31 01:52:41;;;;;;;32.55;18.60;;;;;;;6.93;100.00;100681.66;5115917;28;19924;-77
2021/10/31 01:55:14;;;;;;;35.30;19.70;;;;;;;6.84;100.00;100683.75;5115920;28;20047;-77
2021/10/31 01:57:46;;;;;;;30.98;18.70;;;;;;;6.78;100.00;100676.03;5116316;28;20092;-75
2021/10/31 02:00:16;;;;;;;31.88;19.63;;;;;;;6.70;100.00;100670.16;5115861;28;20051;-75
2021/10/31 02:02:47;;;;;;;30.42;18.75;;;;;;;6.67;100.00;100680.88;5115570;28;20051;-74
2021/10/31 02:05:18;;;;;;;30.45;17.77;;;;;;;6.63;100.00;100683.69;5114758;28;20040;-77
2021/10/31 02:07:52;;;;;;;33.20;18.23;;;;;;;6.73;100.00;100672.69;5115945;28;20040;-75
2021/10/31 02:10:22;;;;;;;30.08;17.83;;;;;;;6.71;100.00;100676.31;5115328;28;20486;-75
2021/10/31 02:12:52;;;;;;;30.50;18.77;;;;;;;6.70;100.00;100678.09;5115500;28;20381;-71
2021/10/31 02:15:23;;;;;;;31.60;18.00;;;;;;;6.59;100.00;100677.66;5115058;28;20044;-71
2021/10/31 02:17:55;;;;;;;31.80;18.48;;;;;;;6.49;100.00;100670.97;5115940;28;20127;-71
2021/10/31 02:20:25;;;;;;;33.15;19.30;;;;;;;6.29;100.00;100669.91;5115298;28;20066;-75
2021/10/31 02:22:55;;;;;;;29.42;18.33;;;;;;;6.22;100.00;100663.06;5115442;28;20047;-75
2021/10/31 02:25:25;;;;;;;31.00;18.55;;;;;;;6.27;100.00;100669.09;5115347;28;20036;-75
2021/10/31 02:27:54;;;;;;;31.45;18.42;;;;;;;6.26;100.00;100667.34;5115695;28;20154;-75
2021/10/31 02:30:22;;;;;;;33.83;18.55;;;;;;;6.14;100.00;100665.13;5115198;28;20043;-75
2021/10/31 02:32:52;;;;;;;36.58;19.55;;;;;;;6.29;100.00;100669.03;5115571;28;20134;-77
2021/10/31 02:35:21;;;;;;;34.20;20.05;;;;;;;6.19;100.00;100668.50;5115029;28;20035;-77
2021/10/31 02:37:49;;;;;;;32.58;18.58;;;;;;;6.07;100.00;100663.59;5115005;28;20507;-76
2021/10/31 02:40:22;;;;;;;37.70;19.75;;;;;;;6.23;100.00;100664.81;5114609;28;20050;-78
2021/10/31 02:42:52;;;;;;;35.67;20.67;;;;;;;6.31;100.00;100669.84;5115489;28;20044;-77
2021/10/31 02:45:21;;;;;;;36.55;20.35;;;;;;;6.15;100.00;100666.00;5114904;28;20325;-78
2021/10/31 02:47:53;;;;;;;33.80;19.40;;;;;;;6.31;100.00;100661.88;5114781;28;20054;-77
2021/10/31 02:50:25;;;;;;;35.57;20.37;;;;;;;6.40;100.00;100656.25;5114827;28;20051;-78
2021/10/31 02:53:08;;;;;;;33.83;20.27;;;;;;;6.53;100.00;100661.97;5113911;28;20055;-77
2021/10/31 02:55:48;;;;;;;39.00;20.40;;;;;;;6.59;100.00;100653.78;5114723;28;20047;-76
2021/10/31 02:58:22;;;;;;;33.03;19.02;;;;;;;6.59;100.00;100651.13;5114995;28;20295;-75
2021/10/31 03:00:54;;;;;;;31.90;19.70;;;;;;;6.64;100.00;100654.47;5115067;28;20054;-76
2021/10/31 03:03:23;;;;;;;35.70;20.20;;;;;;;6.61;100.00;100654.59;5114379;28;20119;-76
2021/10/31 03:05:53;;;;;;;34.55;19.42;;;;;;;6.60;100.00;100652.88;5114273;28;20046;-76
2021/10/31 03:08:21;;;;;;;32.40;19.88;;;;;;;6.54;100.00;100653.09;5114379;28;20043;-76
2021/10/31 03:10:53;;;;;;;36.97;19.92;;;;;;;6.56;100.00;100672.44;5114490;28;20036;-76
2021/10/31 03:13:21;;;;;;;40.58;21.20;;;;;;;6.52;100.00;100669.03;5113956;28;20104;-77
2021/10/31 03:15:49;;;;;;;38.30;20.42;;;;;;;6.36;100.00;100669.66;5113327;28;20083;-75
2021/10/31 03:18:17;;;;;;;37.45;20.73;;;;;;;6.30;100.00;100666.31;5114489;28;20479;-75
2021/10/31 03:20:46;;;;;;;36.63;20.67;;;;;;;6.14;100.00;100667.78;5113529;28;20055;-77
2021/10/31 03:23:15;;;;;;;36.67;20.67;;;;;;;6.22;100.00;100663.06;5114491;28;20392;-77
2021/10/31 03:25:43;;;;;;;36.83;20.05;;;;;;;6.35;100.00;100663.50;5114105;28;20039;-77
2021/10/31 03:28:13;;;;;;;37.30;20.48;;;;;;;6.47;100.00;100665.72;5114329;28;20492;-78
2021/10/31 03:30:42;;;;;;;34.78;19.88;;;;;;;6.36;100.00;100664.34;5113873;28;20043;-77
2021/10/31 03:33:10;;;;;;;37.00;21.30;;;;;;;6.45;100.00;100664.88;5114254;28;20589;-77
2021/10/31 03:35:38;;;;;;;36.38;20.30;;;;;;;6.31;100.00;100667.19;5113921;28;20071;-75
2021/10/31 03:38:07;;;;;;;34.50;19.23;;;;;;;6.34;100.00;100671.50;5114201;28;20480;-75
2021/10/31 03:40:36;;;;;;;37.17;19.88;;;;;;;6.21;100.00;100666.66;5113539;28;20078;-75
2021/10/31 03:43:04;;;;;;;37.40;19.98;;;;;;;6.16;100.00;100663.28;5113764;28;20043;-75
2021/10/31 03:45:34;;;;;;;33.65;19.90;;;;;;;6.14;100.00;100669.56;5112027;28;20419;-77
2021/10/31 03:48:05;;;;;;;36.00;19.85;;;;;;;6.11;100.00;100670.53;5114144;28;20071;-76
2021/10/31 03:50:33;;;;;;;34.50;20.05;;;;;;;5.98;100.00;100667.47;5113685;28;20127;-76
2021/10/31 03:53:01;;;;;;;35.63;19.92;;;;;;;6.10;100.00;100671.47;5114069;28;20065;-75
2021/10/31 03:55:30;;;;;;;35.20;20.42;;;;;;;6.03;100.00;100672.59;5113686;28;20480;-78
2021/10/31 03:57:58;;;;;;;34.88;20.23;;;;;;;5.96;100.00;100673.72;5112515;28;20048;-77
2021/10/31 04:00:26;;;;;;;37.22;20.98;;;;;;;5.94;100.00;100663.19;5113498;28;20039;-78
2021/10/31 04:02:56;;;;;;;35.45;20.23;;;;;;;6.00;100.00;100678.00;5113736;28;20040;-78
2021/10/31 04:05:25;;;;;;;33.30;19.88;;;;;;;6.02;100.00;100670.88;5113441;28;20035;-78
2021/10/31 04:07:53;;;;;;;34.45;20.30;;;;;;;5.98;100.00;100674.53;5113845;28;20114;-76
2021/10/31 04:10:22;;;;;;;36.50;19.95;;;;;;;5.99;100.00;100678.94;5112689;28;20152;-76
2021/10/31 04:12:51;;;;;;;34.40;19.85;;;;;;;6.09;100.00;100671.53;5112996;28;20083;-76
2021/10/31 04:15:20;;;;;;;33.47;19.27;;;;;;;6.18;100.00;100666.78;5113729;28;20044;-77
2021/10/31 04:17:48;;;;;;;39.40;20.25;;;;;;;6.15;100.00;100671.28;5113292;28;20040;-77
2021/10/31 04:20:18;;;;;;;36.88;20.80;;;;;;;6.03;100.00;100672.59;5113680;28;20040;-77
2021/10/31 04:22:48;;;;;;;32.90;19.40;;;;;;;6.01;100.00;100674.44;5113222;28;20046;-77
2021/10/31 04:25:19;;;;;;;36.75;20.23;;;;;;;5.92;100.00;100670.31;5113720;28;20126;-77
2021/10/31 04:27:47;;;;;;;31.83;19.50;;;;;;;5.82;100.00;100682.09;5115925;28;20070;-77
2021/10/31 04:30:16;;;;;;;35.40;20.77;;;;;;;5.81;100.00;100676.88;5117443;28;20050;-77
2021/10/31 04:32:44;;;;;;;31.17;19.35;;;;;;;5.87;100.00;100682.81;5117543;28;20048;-75
2021/10/31 04:35:13;;;;;;;32.20;19.17;;;;;;;5.88;100.00;100678.38;5117441;28;20040;-75
2021/10/31 04:37:45;;;;;;;37.30;20.58;;;;;;;5.90;100.00;100679.22;5117388;28;20463;-75
2021/10/31 04:40:15;;;;;;;35.63;20.60;;;;;;;5.82;100.00;100681.25;5117638;28;20388;-75
2021/10/31 04:42:44;;;;;;;34.78;20.10;;;;;;;5.78;100.00;100684.91;5117361;28;20050;-77
2021/10/31 04:45:12;;;;;;;39.75;20.90;;;;;;;5.71;100.00;100677.19;5117490;28;20048;-77
2021/10/31 04:47:41;;;;;;;34.13;19.77;;;;;;;5.67;100.00;100669.38;5116942;28;20138;-74
2021/10/31 04:50:09;;;;;;;38.85;22.02;;;;;;;5.67;100.00;100672.88;5117400;28;20056;-74
2021/10/31 04:52:43;;;;;;;36.83;19.77;;;;;;;5.75;100.00;100670.00;5116731;28;20050;-74
2021/10/31 04:55:12;;;;;;;40.75;21.17;;;;;;;5.91;100.00;100668.59;5117644;28;20044;-75
2021/10/31 04:57:41;;;;;;;40.03;20.30;;;;;;;5.97;100.00;100663.06;5117039;27;20074;-75
2021/10/31 05:00:10;;;;;;;38.70;21.52;;;;;;;5.98;100.00;100663.94;5116916;28;20377;-75
2021/10/31 05:02:41;;;;;;;41.47;22.20;;;;;;;5.97;100.00;100662.19;5116637;28;20043;-75
2021/10/31 05:05:09;;;;;;;41.45;22.17;;;;;;;6.09;100.00;100667.09;5116739;28;20480;-77
2021/10/31 05:07:38;;;;;;;40.40;21.33;;;;;;;6.18;100.00;100663.25;5116661;28;20043;-77
2021/10/31 05:10:08;;;;;;;43.38;21.88;;;;;;;6.12;100.00;100663.47;5116714;28;20043;-75
2021/10/31 05:12:37;;;;;;;42.38;22.13;;;;;;;6.05;100.00;100665.44;5116468;28;20089;-75
2021/10/31 05:15:06;;;;;;;42.92;23.00;;;;;;;5.86;100.00;100659.03;5117056;28;20050;-75
2021/10/31 05:17:36;;;;;;;44.47;23.25;;;;;;;5.89;100.00;100666.88;5116736;28;20052;-75
2021/10/31 05:20:06;;;;;;;42.47;22.92;;;;;;;5.79;100.00;100662.78;5116780;28;20044;-75
2021/10/31 05:22:34;;;;;;;43.78;23.92;;;;;;;5.95;100.00;100659.63;5117164;28;20039;-78
2021/10/31 05:25:03;;;;;;;43.83;23.58;;;;;;;5.84;100.00;100660.88;5116700;28;20100;-79
2021/10/31 05:27:33;;;;;;;44.97;22.85;;;;;;;5.67;100.00;100659.66;5116036;28;20105;-75
2021/10/31 05:30:04;;;;;;;43.75;22.08;;;;;;;5.79;100.00;100665.44;5116926;28;20468;-77
2021/10/31 05:32:34;;;;;;;39.50;22.42;;;;;;;5.98;100.00;100664.81;5116062;28;20485;-77
2021/10/31 05:35:03;;;;;;;41.20;20.70;;;;;;;6.11;100.00;100662.59;5116257;28;20122;-75
2021/10/31 05:37:34;;;;;;;39.00;21.50;;;;;;;5.92;100.00;100664.16;5116162;28;20096;-74
2021/10/31 05:40:03;;;;;;;40.70;22.13;;;;;;;5.78;100.00;100661.06;5116919;28;20044;-75
2021/10/31 05:42:33;;;;;;;40.53;22.55;;;;;;;5.78;100.00;100661.94;5116019;28;20046;-77
2021/10/31 05:45:01;;;;;;;41.70;22.95;;;;;;;5.74;100.00;100671.78;5116046;28;20500;-77
2021/10/31 05:47:30;;;;;;;42.45;22.65;;;;;;;5.85;100.00;100673.19;5115892;28;20039;-77
2021/10/31 05:49:58;;;;;;;40.35;22.05;;;;;;;5.85;100.00;100673.19;5116364;28;20039;-77
2021/10/31 05:52:27;;;;;;;40.47;23.25;;;;;;;6.12;100.00;100682.00;5116357;28;20050;-77
2021/10/31 05:54:55;;;;;;;43.47;23.33;;;;;;;6.00;100.00;100672.72;5115995;28;20050;-77
2021/10/31 05:57:23;;;;;;;41.67;24.10;;;;;;;6.08;100.00;100675.97;5116271;28;20036;-77
2021/10/31 05:59:52;;;;;;;42.40;21.73;;;;;;;6.18;100.00;100677.38;5115619;28;20070;-77
2021/10/31 06:02:21;;;;;;;43.78;22.98;;;;;;;6.23;100.00;100686.00;5115723;28;20507;-77
2021/10/31 06:04:50;;;;;;;41.30;22.25;;;;;;;6.21;100.00;100681.69;5115823;28;20818;-77
2021/10/31 06:07:19;;;;;;;40.83;23.08;;;;;;;6.32;100.00;100685.66;5115568;28;20048;-77
2021/10/31 06:09:47;;;;;;;43.33;23.15;;;;;;;6.40;100.00;100695.13;5115450;28;20043;-77
2021/10/31 06:12:15;;;;;;;43.28;22.50;;;;;;;6.35;100.00;100690.00;5115816;28;20039;-75
2021/10/31 06:14:44;;;;;;;42.60;22.60;;;;;;;6.38;100.00;100694.34;5115459;28;20045;-77
2021/10/31 06:17:13;;;;;;;40.28;22.98;;;;;;;6.40;100.00;100697.78;5115560;28;20126;-79
2021/10/31 06:19:42;;;;;;;39.90;22.05;;;;;;;6.36;100.00;100686.41;5115179;28;20569;-75
2021/10/31 06:22:11;;;;;;;42.40;22.63;;;;;;;6.40;100.00;100692.50;5115714;28;20044;-74
2021/10/31 06:24:39;;;;;;;39.67;22.15;;;;;;;6.52;100.00;100692.03;5114595;28;20040;-77
2021/10/31 06:27:09;;;;;;;43.83;23.42;;;;;;;6.57;100.00;100700.69;5115252;28;20086;-77
2021/10/31 06:29:38;;;;;;;38.15;21.40;;;;;;;6.68;100.00;100706.47;5114977;28;20036;-72
2021/10/31 06:32:07;;;;;;;42.13;22.02;;;;;;;6.62;100.00;100695.22;5114829;28;20050;-74
2021/10/31 06:34:37;;;;;;;43.17;22.73;;;;;;;6.74;100.00;100698.25;5108689;28;20225;-73
2021/10/31 06:37:05;;;;;;;37.67;20.63;;;;;;;6.88;100.00;100701.28;5100731;28;20138;-74
2021/10/31 06:39:33;;;;;;;34.95;20.25;;;;;;;7.13;100.00;100701.19;5094996;28;20078;-74
2021/10/31 06:42:01;;;;;;;36.50;20.58;;;;;;;7.14;100.00;100702.06;5094982;28;20034;-74
2021/10/31 06:44:29;;;;;;;33.20;18.60;;;;;;;7.22;100.00;100699.09;5094794;28;20384;-78
2021/10/31 06:47:00;;;;;;;36.58;20.92;;;;;;;7.37;100.00;100694.06;5094630;28;20036;-74
2021/10/31 06:49:29;;;;;;;34.85;19.65;;;;;;;7.33;100.00;100703.06;5094460;28;20115;-75
2021/10/31 06:51:59;;;;;;;39.50;20.10;;;;;;;7.33;100.00;100692.44;5094342;28;20040;-74
2021/10/31 06:54:28;;;;;;;41.75;19.55;;;;;;;7.50;100.00;100698.88;5096178;28;20036;-70
2021/10/31 06:56:57;;;;;;;36.67;19.83;;;;;;;7.56;100.00;100704.81;5113776;28;20519;-70
2021/10/31 06:59:25;;;;;;;35.63;18.83;;;;;;;7.70;100.00;100699.78;5117807;28;20065;-70
2021/10/31 07:01:53;;;;;;;34.53;18.75;;;;;;;7.78;100.00;100694.16;5114854;28;20150;-71
2021/10/31 07:04:22;;;;;;;36.53;20.17;;;;;;;7.78;100.00;100699.47;5114376;28;20082;-75
2021/10/31 07:06:50;;;;;;;31.63;18.17;;;;;;;7.89;100.00;100696.38;5114489;28;20075;-74
2021/10/31 07:09:20;;;;;;;34.92;18.02;;;;;;;7.99;100.00;100687.94;5114544;28;20047;-75
2021/10/31 07:11:48;;;;;;;33.40;18.95;;;;;;;8.10;100.00;100698.09;5114434;28;20441;-74
2021/10/31 07:14:17;;;;;;;36.42;19.38;;;;;;;8.19;100.00;100694.19;5114250;28;20039;-72
2021/10/31 07:16:46;;;;;;;31.58;17.63;;;;;;;8.19;100.00;100695.06;5114134;28;20067;-72
2021/10/31 07:19:14;;;;;;;33.40;18.40;;;;;;;8.21;100.00;100700.34;5114107;28;20040;-71
2021/10/31 07:21:42;;;;;;;30.33;18.98;;;;;;;8.18;100.00;100692.47;5114239;28;20093;-69
2021/10/31 07:24:11;;;;;;;31.58;18.63;;;;;;;8.18;100.00;100692.47;5114395;28;20051;-70
2021/10/31 07:26:40;;;;;;;32.30;17.98;;;;;;;8.33;100.00;100702.44;5114181;28;20146;-71
2021/10/31 07:29:09;;;;;;;31.90;18.88;;;;;;;8.42;100.00;100704.75;5114219;28;20130;-71
2021/10/31 07:31:41;;;;;;;30.98;18.70;;;;;;;8.43;100.00;100698.50;5114172;28;20069;-70
2021/10/31 07:34:11;;;;;;;29.80;17.87;;;;;;;8.51;100.00;100701.66;5114204;28;20480;-69
2021/10/31 07:36:41;;;;;;;30.13;18.13;;;;;;;8.52;100.00;100698.09;5113637;28;20075;-71
2021/10/31 07:39:10;;;;;;;29.83;18.42;;;;;;;8.53;100.00;100702.47;5114039;28;20039;-71
2021/10/31 07:41:40;;;;;;;29.45;19.05;;;;;;;8.63;100.00;100700.25;5114026;28;20473;-70
2021/10/31 07:44:08;;;;;;;30.33;16.98;;;;;;;8.73;100.00;100703.38;5113912;28;20046;-72
2021/10/31 07:46:37;;;;;;;29.73;17.88;;;;;;;8.67;100.00;100701.84;5114114;28;20131;-70
2021/10/31 07:49:05;;;;;;;31.20;18.52;;;;;;;8.74;100.00;100702.44;5113430;28;20050;-69
2021/10/31 07:51:34;;;;;;;32.50;18.55;;;;;;;8.74;100.00;100703.28;5113803;28;20134;-70
2021/10/31 07:54:02;;;;;;;32.70;18.48;;;;;;;8.78;100.00;100704.00;5113655;28;20500;-69
2021/10/31 07:56:33;;;;;;;28.25;16.40;;;;;;;8.95;100.00;100698.78;5114061;28;20040;-67
2021/10/31 07:59:03;;;;;;;28.38;16.60;;;;;;;9.16;100.00;100700.41;5113512;28;20043;-69
2021/10/31 08:01:32;;;;;;;25.42;16.05;;;;;;;9.20;100.00;100701.16;5113364;28;20044;-69
2021/10/31 08:04:00;;;;;;;27.77;16.80;;;;;;;9.29;100.00;100691.88;5113690;28;20113;-69
2021/10/31 08:06:28;;;;;;;26.50;16.30;;;;;;;9.30;100.00;100690.94;5113351;28;20031;-68
2021/10/31 08:08:57;;;;;;;29.65;17.15;;;;;;;9.38;100.00;100688.78;5113511;28;20036;-68
2021/10/31 08:11:25;;;;;;;29.67;16.48;;;;;;;9.38;100.00;100680.78;5112345;28;20047;-69
2021/10/31 08:13:53;;;;;;;28.70;17.27;;;;;;;9.43;100.00;100678.75;5113358;28;20043;-68
2021/10/31 08:16:24;;;;;;;26.55;16.67;;;;;;;9.51;100.00;100678.38;5113496;28;20043;-68
2021/10/31 08:18:53;;;;;;;28.98;17.40;;;;;;;9.42;100.00;100674.38;5112821;28;20396;-68
2021/10/31 08:21:22;;;;;;;25.25;16.23;;;;;;;9.44;100.00;100680.47;5113002;28;20039;-69
2021/10/31 08:23:50;;;;;;;27.30;16.83;;;;;;;9.54;100.00;100684.41;5111064;28;20512;-69
2021/10/31 08:26:19;;;;;;;24.70;15.32;;;;;;;9.65;100.00;100676.78;5113105;28;20082;-69
2021/10/31 08:28:49;;;;;;;27.58;15.60;;;;;;;9.73;100.00;100674.56;5112532;28;20047;-70
2021/10/31 08:31:23;;;;;;;27.00;15.82;;;;;;;9.75;100.00;100672.72;5113530;28;20431;-74
2021/10/31 08:33:57;;;;;;;27.65;15.88;;;;;;;9.81;100.00;100668.00;5113124;28;20481;-72
2021/10/31 08:36:26;;;;;;;24.75;15.63;;;;;;;9.80;100.00;100661.81;5113620;28;20060;-71
2021/10/31 08:38:54;;;;;;;30.23;16.30;;;;;;;9.87;100.00;100660.56;5113597;28;20044;-72
2021/10/31 08:41:24;;;;;;;24.73;15.43;;;;;;;9.88;100.00;100664.09;5117119;28;20389;-71
2021/10/31 08:43:54;;;;;;;25.02;15.18;;;;;;;9.92;100.00;100663.00;5113266;28;20047;-71
2021/10/31 08:46:23;;;;;;;25.13;15.10;;;;;;;10.03;100.00;100653.50;5092771;28;20044;-72
2021/10/31 08:48:53;;;;;;;24.20;15.60;;;;;;;10.12;100.00;100662.81;5092499;28;20070;-74
2021/10/31 08:51:23;;;;;;;24.45;15.45;;;;;;;10.08;100.00;100663.06;5092717;28;20068;-77
2021/10/31 08:53:52;;;;;;;25.67;15.45;;;;;;;10.22;100.00;100656.09;5092666;28;20090;-73
2021/10/31 08:56:20;;;;;;;24.90;14.88;;;;;;;10.27;99.79;100661.22;5092937;28;20499;-75
2021/10/31 08:58:49;;;;;;;23.83;14.52;;;;;;;10.40;98.65;100654.28;5092654;28;20067;-76
2021/10/31 09:01:18;;;;;;;24.83;14.98;;;;;;;10.39;99.04;100659.69;5092779;28;20484;-74
2021/10/31 09:03:50;;;;;;;28.42;15.23;;;;;;;10.43;98.58;100658.63;5092770;28;20036;-74
2021/10/31 09:06:19;;;;;;;28.17;15.57;;;;;;;10.47;98.09;100652.16;5093023;28;20470;-76
2021/10/31 09:08:48;;;;;;;24.52;14.93;;;;;;;10.53;97.86;100647.38;5092790;28;20086;-73
2021/10/31 09:11:16;;;;;;;23.67;14.60;;;;;;;10.65;96.83;100647.66;5092719;28;20422;-73
2021/10/31 09:13:44;;;;;;;21.35;13.38;;;;;;;10.73;95.55;100640.09;5094338;28;20068;-74
2021/10/31 09:16:12;;;;;;;20.67;13.02;;;;;;;10.84;94.71;100641.22;5095428;28;20044;-74
2021/10/31 09:18:40;;;;;;;19.02;12.45;;;;;;;10.89;93.81;100636.47;5096450;28;20085;-74
2021/10/31 09:21:09;;;;;;;21.55;11.73;;;;;;;10.99;93.08;100630.63;5095959;28;20040;-74
2021/10/31 09:23:39;;;;;;;19.77;11.20;;;;;;;10.96;93.22;100621.00;5096522;28;20040;-72
2021/10/31 09:26:07;;;;;;;18.50;11.93;;;;;;;10.96;93.19;100617.47;5096142;28;20040;-73
2021/10/31 09:28:42;;;;;;;20.25;12.20;;;;;;;11.06;92.95;100616.84;5096375;28;20044;-73
2021/10/31 09:31:10;;;;;;;20.85;11.30;;;;;;;11.09;92.63;100621.16;5096009;28;20052;-73
2021/10/31 09:33:39;;;;;;;22.85;13.25;;;;;;;11.10;92.69;100621.09;5096376;28;20044;-74
2021/10/31 09:36:08;;;;;;;19.10;12.15;;;;;;;11.20;92.02;100615.22;5095977;28;20136;-74
2021/10/31 09:38:38;;;;;;;19.10;11.68;;;;;;;11.14;91.82;100611.09;5096022;28;20055;-74
2021/10/31 09:41:06;;;;;;;19.33;11.75;;;;;;;11.15;91.35;100604.81;5095505;28;20045;-74
2021/10/31 09:43:44;;;;;;;18.48;11.20;;;;;;;11.18;91.44;100602.81;5096013;28;20044;-74
2021/10/31 09:46:13;;;;;;;18.30;11.00;;;;;;;11.21;90.69;100603.59;5115321;28;20049;-74
2021/10/31 09:48:41;;;;;;;19.65;11.50;;;;;;;11.25;90.47;100606.00;5116284;28;20089;-74
2021/10/31 09:51:10;;;;;;;16.88;10.68;;;;;;;11.37;89.53;100599.94;5115703;28;20044;-74
2021/10/31 09:53:41;;;;;;;17.55;11.07;;;;;;;11.43;88.77;100591.59;5115155;28;20082;-74
2021/10/31 09:56:10;;;;;;;16.52;10.77;;;;;;;11.46;88.43;100594.06;5114753;28;20047;-74
2021/10/31 09:58:41;;;;;;;17.40;10.75;;;;;;;11.53;88.07;100585.69;5116356;28;20434;-74
2021/10/31 10:01:36;;;;;;;20.10;11.48;;;;;;;11.52;88.28;100586.66;5116052;28;20073;-74
2021/10/31 10:04:06;;;;;;;18.02;11.40;;;;;;;11.52;88.10;100589.31;5115749;28;20043;-74
2021/10/31 10:06:38;;;;;;;19.50;11.18;;;;;;;11.53;87.83;100586.56;5116059;28;20093;-74
2021/10/31 10:09:11;;;;;;;17.40;11.80;;;;;;;11.61;87.40;100586.13;5115491;28;20097;-74
2021/10/31 10:11:40;;;;;;;;;;;;;;;11.64;86.81;100572.56;5116673;28;20039;-74
2021/10/31 10:14:10;;;;;;;18.27;10.98;;;;;;;11.60;86.49;100579.91;5115348;28;19919;-74
2021/10/31 10:16:39;;;;;;;16.88;11.32;;;;;;;11.69;86.61;100567.81;5116145;28;20043;-74
2021/10/31 10:19:19;;;;;;;18.85;11.00;;;;;;;11.72;86.89;100570.31;5115820;28;20079;-74
2021/10/31 10:21:56;;;;;;;16.50;11.07;;;;;;;11.72;86.25;100567.63;5115597;28;20036;-74
2021/10/31 10:24:26;;;;;;;16.50;11.38;;;;;;;11.70;86.15;100559.72;5114615;28;20036;-74
2021/10/31 10:27:00;;;;;;;17.88;11.05;;;;;;;11.91;85.36;100562.06;5115618;28;20044;-74
2021/10/31 10:29:30;;;;;;;18.48;10.75;;;;;;;11.86;85.33;100556.97;5115895;28;20040;-74
2021/10/31 10:32:00;;;;;;;17.33;10.70;;;;;;;11.92;85.24;100558.44;5114422;28;20056;-74
2021/10/31 10:34:42;;;;;;;16.70;10.93;;;;;;;11.92;85.10;100545.94;5115331;28;20043;-74
2021/10/31 10:37:13;;;;;;;18.17;11.18;;;;;;;11.82;85.67;100549.25;5115277;28;20043;-74
2021/10/31 10:39:47;;;;;;;18.73;11.43;;;;;;;11.93;84.62;100544.97;5114959;28;20071;-74
2021/10/31 10:42:20;;;;;;;16.88;10.35;;;;;;;11.89;84.68;100538.09;5115219;28;20085;-74
2021/10/31 10:44:55;;;;;;;16.17;10.50;;;;;;;11.94;84.66;100536.00;5115132;28;20101;-73
2021/10/31 10:47:24;;;;;;;16.92;10.52;;;;;;;11.91;84.51;100535.34;5115189;28;20047;-74
2021/10/31 10:49:54;;;;;;;17.10;11.73;;;;;;;11.78;85.17;100535.19;5115120;28;20054;-74
2021/10/31 10:52:25;;;;;;;19.15;11.32;;;;;;;11.92;84.73;100529.03;5115431;28;20391;-74
2021/10/31 10:55:00;;;;;;;18.05;11.15;;;;;;;11.89;84.89;100524.75;5115167;28;20048;-74
2021/10/31 10:57:31;;;;;;;17.95;10.90;;;;;;;11.94;84.55;100524.44;5114666;28;20071;-74
2021/10/31 11:00:03;;;;;;;19.13;11.68;;;;;;;11.97;84.41;100517.13;5114455;28;20040;-74
2021/10/31 11:02:31;;;;;;;17.88;10.35;;;;;;;11.91;84.47;100508.59;5115115;28;20454;-74
2021/10/31 11:05:01;;;;;;;18.42;10.75;;;;;;;11.97;84.30;100509.09;5114709;28;20043;-74
2021/10/31 11:07:33;;;;;;;17.77;11.35;;;;;;;11.93;84.59;100502.19;5114866;28;20043;-74
2021/10/31 11:10:08;;;;;;;19.15;11.82;;;;;;;12.11;83.40;100502.03;5114568;28;20035;-74
2021/10/31 11:12:38;;;;;;;16.00;10.68;;;;;;;12.23;82.77;100499.44;5114834;28;20046;-74
2021/10/31 11:15:10;;;;;;;17.63;11.57;;;;;;;12.26;82.46;100493.06;5114945;28;20044;-74
2021/10/31 11:17:39;;;;;;;19.23;11.48;;;;;;;12.23;82.33;100487.88;5114747;28;20074;-74
2021/10/31 11:20:10;;;;;;;16.85;11.27;;;;;;;12.35;81.85;100478.19;5114236;28;20430;-74
2021/10/31 11:22:42;;;;;;;18.50;11.45;;;;;;;12.39;81.82;100480.59;5114609;28;20043;-74
2021/10/31 11:25:17;;;;;;;17.60;10.43;;;;;;;12.36;81.91;100478.13;5114351;28;20468;-74